nieuwe - new website meteo.heerschap.net

Tervuren markt Meer informatie Tervuren markt


Bezoek onze andere website:

Meteotemplate

Home Weather Station

Saratoga


Lokaal brand risico:
CBI


Regionaal brand risico: Meer informatie



METAR rapporten vliegvelden

   
EBBR - Brussels
Gewijzigd: Oct 6 2022 6:20 pm
Licht bewolkt  
Licht bewolkt  
   Wind: ZW 9.3 km/h
Wind: ZW 9.3 km/h
Temperatuur: 16°C
Dauwpunt: 7°C
Vochtigheid: 55%
Barometer: 1030 mb
Bewolking: Licht bewolkt
Zicht: meer dan 10 km
Bewolking: Licht bewolkt 1371.6 m
EBBR 061620Z 23005KT 9999 FEW045 16/07 Q1030 NOSIG
EBAW - Antwerp
Gewijzigd: Oct 6 2022 6:20 pm
  
  
   Wind: ZZW 11.1 km/h
Wind: ZZW 11.1 km/h
Temperatuur: 16°C
Dauwpunt: 6°C
Vochtigheid: 52%
Barometer: 1029 mb
Zicht: meer dan 10 km
Bewolking: Bewolking
EBAW 061620Z AUTO 21006KT 9999 // VV/// 16/06 Q1029
EHBK - Maastricht
Gewijzigd: Oct 6 2022 6:25 pm
Helder  
Helder  
   Wind: WZW 11.1 km/h
Wind: WZW 11.1 km/h
Temperatuur: 15°C
Dauwpunt: 7°C
Vochtigheid: 59%
Barometer: 1030 mb
Bewolking: Helder
Zicht: meer dan 10 km
Bewolking: Helder
EHBK 061625Z AUTO 24006KT 210V280 9999 NCD 15/07 Q1030 NOSIG
EDLV - Nijmegen
Gewijzigd: Oct 6 2022 6:20 pm
Helder  
Helder  
   Wind: ZW 11.1 km/h
Wind: ZW 11.1 km/h
Temperatuur: 16°C
Dauwpunt: 6°C
Vochtigheid: 52%
Barometer: 1029 mb
Zicht: meer dan 10 km
Bewolking: Helder
EDLV 061620Z 23006KT CAVOK 16/06 Q1029
EHRD - Rotterdam
Gewijzigd: Oct 6 2022 6:25 pm
Helder  
Helder  
   Wind: ZW 18.5 km/h
Wind: ZW 18.5 km/h
Temperatuur: 14°C
Dauwpunt: 8°C
Vochtigheid: 67%
Barometer: 1028 mb
Bewolking: Helder
Zicht: meer dan 10 km
Bewolking: Helder
EHRD 061625Z AUTO 23010KT 190V250 9999 NCD 14/08 Q1028 NOSIG
 

Script ontwikkeld door  Saratoga-weather.org Aangepast voor de template door  Weerstation Leuven

U vindt ons ook hier:

Het Weer Aktueel

UK Metoffice

European Weather Network

WeatherCloud

Weather Underground

Benelux Weer Netwerk

AWEKAS

Citizen Weather Observer Program (CWOP)

HAMweather, WeatherForYou, PWS Weather

Apparatuur in gebruik:

Weerstation
Davis VP2

Weerprogramma
Meteobridge

Weercomputer
Meteobridge NANO

Davis VP2

Meteobridge

Meteobridge NANO